Time;durP1;ratioP1;P1;durP2;ratioP2;P2;SDS_P1;SDS_P2;PMS_P1;PMS_P2;Temp;Humidity;BMP_temperature;BMP_pressure;BME280_temperature;BME280_humidity;BME280_pressure;Samples;Min_cycle;Max_cycle;Signal;HPM_P1;HPM_P2
2023/06/28 00:01:43;;;;;;;1999.90;999.90;;;17.80;99.90;;;;;;5091803;28;20637;-68
2023/06/28 00:04:08;;;;;;;1999.90;999.90;;;17.80;99.90;;;;;;5091992;28;20166;-69
2023/06/28 00:06:34;;;;;;;1999.90;999.90;;;17.90;99.90;;;;;;5091913;28;20575;-71
2023/06/28 00:09:00;;;;;;;1999.90;999.90;;;17.90;99.90;;;;;;5092034;28;20189;-68
2023/06/28 00:11:27;;;;;;;1999.90;999.90;;;17.90;99.90;;;;;;5091711;28;20221;-69
2023/06/28 00:13:53;;;;;;;1999.90;999.90;;;17.80;99.90;;;;;;5091967;28;20195;-70
2023/06/28 00:16:19;;;;;;;1999.90;999.90;;;17.80;99.90;;;;;;5091767;28;20603;-70
2023/06/28 00:18:45;;;;;;;1999.90;999.90;;;17.80;99.90;;;;;;5091912;28;20167;-69
2023/06/28 00:21:13;;;;;;;1999.90;999.90;;;17.70;99.90;;;;;;5093361;28;20180;-68
2023/06/28 00:23:39;;;;;;;1999.90;999.90;;;17.70;99.90;;;;;;5096016;28;20450;-70
2023/06/28 00:26:05;;;;;;;1999.90;999.90;;;17.70;99.90;;;;;;5095851;28;20422;-70
2023/06/28 00:28:30;;;;;;;1999.90;999.90;;;17.70;99.90;;;;;;5095873;28;20419;-69
2023/06/28 00:30:56;;;;;;;1999.90;999.90;;;17.70;99.90;;;;;;5095420;28;20251;-70
2023/06/28 00:33:21;;;;;;;1999.90;999.90;;;17.60;99.90;;;;;;5095659;28;20171;-68
2023/06/28 00:35:48;;;;;;;1999.90;999.90;;;17.50;99.90;;;;;;5096064;28;20558;-71
2023/06/28 00:38:13;;;;;;;1999.90;999.90;;;17.50;99.90;;;;;;5096089;28;20175;-69
2023/06/28 00:40:39;;;;;;;1999.90;999.90;;;17.40;99.90;;;;;;5095766;28;20411;-70
2023/06/28 00:43:04;;;;;;;1999.90;999.90;;;17.30;99.90;;;;;;5095227;28;20259;-69
2023/06/28 00:45:30;;;;;;;1999.90;999.90;;;17.40;99.90;;;;;;5095342;28;20199;-69
2023/06/28 00:47:56;;;;;;;1999.90;999.90;;;17.30;99.90;;;;;;5095424;28;20639;-68
2023/06/28 00:50:22;;;;;;;1999.90;999.90;;;17.30;99.90;;;;;;5095514;28;20211;-69
2023/06/28 00:52:48;;;;;;;1999.90;999.90;;;17.20;99.90;;;;;;5094697;28;20773;-69
2023/06/28 00:55:14;;;;;;;1999.90;999.90;;;17.20;99.90;;;;;;5095228;28;20434;-69
2023/06/28 00:57:40;;;;;;;1999.90;999.90;;;17.30;99.90;;;;;;5095189;28;20166;-69
2023/06/28 01:00:11;;;;;;;1999.90;999.90;;;17.30;99.90;;;;;;5095213;28;20783;-68
2023/06/28 01:02:41;;;;;;;1999.90;999.90;;;17.40;99.90;;;;;;5095097;28;20185;-71
2023/06/28 01:05:09;;;;;;;1999.90;999.90;;;17.40;99.90;;;;;;5095115;28;20436;-70
2023/06/28 01:07:36;;;;;;;1999.90;999.90;;;17.30;99.90;;;;;;5095015;28;20477;-71
2023/06/28 01:10:04;;;;;;;1999.90;999.90;;;17.30;99.90;;;;;;5094965;28;20478;-70
2023/06/28 01:12:29;;;;;;;1999.90;999.90;;;17.30;99.90;;;;;;5094582;28;20407;-71
2023/06/28 01:14:55;;;;;;;1999.90;999.90;;;17.30;99.90;;;;;;5094850;28;20808;-71
2023/06/28 01:17:21;;;;;;;1999.90;999.90;;;17.30;99.90;;;;;;5095057;28;20639;-71
2023/06/28 01:19:47;;;;;;;1999.90;999.90;;;17.30;99.90;;;;;;5094856;28;20166;-70
2023/06/28 01:22:13;;;;;;;1999.90;999.90;;;17.30;99.90;;;;;;5094348;28;20442;-70
2023/06/28 01:24:40;;;;;;;1999.90;999.90;;;17.30;99.90;;;;;;5094624;28;20171;-70
2023/06/28 01:27:09;;;;;;;1999.90;999.90;;;17.30;99.90;;;;;;5094856;28;20912;-71
2023/06/28 01:29:36;;;;;;;1999.90;999.90;;;17.30;99.90;;;;;;5094573;28;20407;-71
2023/06/28 01:32:05;;;;;;;1999.90;999.90;;;17.30;99.90;;;;;;5093142;28;20418;-70
2023/06/28 01:34:30;;;;;;;1999.90;999.90;;;17.30;99.90;;;;;;5094600;28;20407;-69
2023/06/28 01:36:59;;;;;;;1999.90;999.90;;;17.30;99.90;;;;;;5094451;28;20437;-70
2023/06/28 01:39:25;;;;;;;1999.90;999.90;;;17.30;99.90;;;;;;5094382;28;20562;-68
2023/06/28 01:41:53;;;;;;;1999.90;999.90;;;17.30;99.90;;;;;;5093995;28;20422;-70
2023/06/28 01:44:19;;;;;;;1999.90;999.90;;;17.20;99.90;;;;;;5094362;28;20459;-69
2023/06/28 01:46:46;;;;;;;1999.90;999.90;;;17.20;99.90;;;;;;5094412;28;20454;-70
2023/06/28 01:49:12;;;;;;;1999.90;999.90;;;17.20;99.90;;;;;;5094283;28;20467;-70
2023/06/28 01:51:39;;;;;;;1999.90;999.90;;;17.20;99.90;;;;;;5093844;28;20460;-70
2023/06/28 01:54:05;;;;;;;1999.90;999.90;;;17.10;99.90;;;;;;5094123;28;20404;-70
2023/06/28 01:56:31;;;;;;;1999.90;999.90;;;17.20;99.90;;;;;;5094001;28;20425;-70
2023/06/28 01:58:56;;;;;;;1999.90;999.90;;;17.20;99.90;;;;;;5094242;28;20919;-71
2023/06/28 02:01:22;;;;;;;1999.90;999.90;;;17.20;99.90;;;;;;5093807;28;20255;-70
2023/06/28 02:03:48;;;;;;;1999.90;999.90;;;17.30;99.90;;;;;;5094035;28;20264;-69
2023/06/28 02:06:14;;;;;;;1999.90;999.90;;;17.20;99.90;;;;;;5093904;28;20194;-69
2023/06/28 02:08:40;;;;;;;1999.90;999.90;;;17.20;99.90;;;;;;5093883;28;20173;-70
2023/06/28 02:11:05;;;;;;;1999.90;999.90;;;17.10;99.90;;;;;;5093459;28;20463;-69
2023/06/28 02:13:31;;;;;;;1999.90;999.90;;;17.10;99.90;;;;;;5093917;28;20535;-70
2023/06/28 02:15:57;;;;;;;1999.90;999.90;;;17.10;99.90;;;;;;5093725;28;20376;-71
2023/06/28 02:18:24;;;;;;;1999.90;999.90;;;17.10;99.90;;;;;;5093661;28;20590;-70
2023/06/28 02:20:54;;;;;;;1999.90;999.90;;;17.10;99.90;;;;;;5093595;28;20288;-69
2023/06/28 02:23:19;;;;;;;1999.90;999.90;;;17.10;99.90;;;;;;5093379;28;20450;-70
2023/06/28 02:25:45;;;;;;;1999.90;999.90;;;17.00;99.90;;;;;;5093474;28;20428;-70
2023/06/28 02:28:11;;;;;;;1999.90;999.90;;;16.90;99.90;;;;;;5093679;28;20269;-70
2023/06/28 02:30:36;;;;;;;1999.90;999.90;;;17.00;99.90;;;;;;5093361;28;20799;-70
2023/06/28 02:33:02;;;;;;;1999.90;999.90;;;17.00;99.90;;;;;;5093146;28;20210;-69
2023/06/28 02:35:28;;;;;;;1999.90;999.90;;;17.00;99.90;;;;;;5093316;28;20277;-71
2023/06/28 02:37:53;;;;;;;1999.90;999.90;;;17.10;99.90;;;;;;5093235;28;20257;-70
2023/06/28 02:40:19;;;;;;;1999.90;999.90;;;17.10;99.90;;;;;;5093404;28;20174;-70
2023/06/28 02:42:45;;;;;;;1999.90;999.90;;;17.00;99.90;;;;;;5092969;28;20272;-71
2023/06/28 02:45:11;;;;;;;1999.90;999.90;;;17.10;99.90;;;;;;5092877;28;20460;-70
2023/06/28 02:47:37;;;;;;;1999.90;999.90;;;17.10;99.90;;;;;;5093124;28;20593;-70
2023/06/28 02:50:05;;;;;;;1999.90;999.90;;;17.10;99.90;;;;;;5093152;28;20649;-70
2023/06/28 02:52:32;;;;;;;1999.90;999.90;;;17.20;99.90;;;;;;5092686;28;20412;-70
2023/06/28 02:54:57;;;;;;;1999.90;999.90;;;17.20;99.90;;;;;;5092858;28;20430;-70
2023/06/28 02:57:24;;;;;;;1999.90;999.90;;;17.20;99.90;;;;;;5092994;28;20408;-70
2023/06/28 02:59:49;;;;;;;1999.90;999.90;;;17.20;99.90;;;;;;5092980;28;20176;-69
2023/06/28 03:02:16;;;;;;;1999.90;999.90;;;17.30;99.90;;;;;;5092609;28;20432;-70
2023/06/28 03:04:41;;;;;;;1999.90;999.90;;;17.30;99.90;;;;;;5092785;28;20569;-70
2023/06/28 03:07:16;;;;;;;1999.90;999.90;;;17.30;99.90;;;;;;5092706;28;20415;-70
2023/06/28 03:09:42;;;;;;;1999.90;999.90;;;17.30;99.90;;;;;;5092854;28;20175;-70
2023/06/28 03:12:08;;;;;;;1999.90;999.90;;;17.30;99.90;;;;;;5092456;28;20783;-70
2023/06/28 03:14:34;;;;;;;1999.90;999.90;;;17.30;99.90;;;;;;5092640;28;20224;-70
2023/06/28 03:17:00;;;;;;;1999.90;999.90;;;17.30;99.90;;;;;;5092533;28;20428;-70
2023/06/28 03:19:25;;;;;;;1999.90;999.90;;;17.30;99.90;;;;;;5092548;28;20419;-69
2023/06/28 03:21:51;;;;;;;1999.90;999.90;;;17.30;99.90;;;;;;5092045;28;20185;-68
2023/06/28 03:24:16;;;;;;;1999.90;999.90;;;17.30;99.90;;;;;;5092580;28;20172;-70
2023/06/28 03:26:42;;;;;;;1999.90;999.90;;;17.30;99.90;;;;;;5092484;28;20194;-68
2023/06/28 03:29:07;;;;;;;1999.90;999.90;;;17.30;99.90;;;;;;5092875;28;20190;-70
2023/06/28 03:31:33;;;;;;;1999.90;999.90;;;17.30;99.90;;;;;;5092066;28;20631;-68
2023/06/28 03:33:59;;;;;;;1999.90;999.90;;;17.30;99.90;;;;;;5092357;28;20177;-69
2023/06/28 03:36:27;;;;;;;1999.90;999.90;;;17.30;99.90;;;;;;5092214;28;20201;-69
2023/06/28 03:38:53;;;;;;;1999.90;999.90;;;17.40;99.90;;;;;;5092431;28;20212;-68
2023/06/28 03:41:19;;;;;;;1999.90;999.90;;;17.40;99.90;;;;;;5092073;28;20436;-69
2023/06/28 03:43:44;;;;;;;1999.90;999.90;;;17.30;99.90;;;;;;5092202;28;20921;-69
2023/06/28 03:46:10;;;;;;;1999.90;999.90;;;17.30;99.90;;;;;;5092390;28;20564;-69
2023/06/28 03:48:36;;;;;;;1999.90;999.90;;;17.30;99.90;;;;;;5092261;28;20667;-69
2023/06/28 03:51:01;;;;;;;1999.90;999.90;;;17.30;99.90;;;;;;5091825;28;20233;-69
2023/06/28 03:53:27;;;;;;;1999.90;999.90;;;17.30;99.90;;;;;;5092398;28;20698;-69
2023/06/28 03:55:53;;;;;;;1999.90;999.90;;;17.30;99.90;;;;;;5091361;28;20228;-69
2023/06/28 03:58:19;;;;;;;1999.90;999.90;;;17.30;99.90;;;;;;5092284;28;20464;-69
2023/06/28 04:00:44;;;;;;;1999.90;999.90;;;17.40;99.90;;;;;;5092119;28;20463;-69
2023/06/28 04:03:10;;;;;;;1999.90;999.90;;;17.40;99.90;;;;;;5091763;28;20236;-69
2023/06/28 04:05:36;;;;;;;1999.90;999.90;;;17.40;99.90;;;;;;5092008;28;20190;-68
2023/06/28 04:08:02;;;;;;;1999.90;999.90;;;17.40;99.90;;;;;;5092294;28;20219;-68
2023/06/28 04:10:28;;;;;;;1999.90;999.90;;;17.40;99.90;;;;;;5092101;28;20207;-69
2023/06/28 04:12:53;;;;;;;1999.90;999.90;;;17.30;99.90;;;;;;5091690;28;20399;-69
2023/06/28 04:15:19;;;;;;;1999.90;999.90;;;17.30;99.90;;;;;;5091829;28;20428;-69
2023/06/28 04:17:45;;;;;;;1999.90;999.90;;;17.30;99.90;;;;;;5091944;28;20166;-69
2023/06/28 04:20:11;;;;;;;1999.90;999.90;;;17.30;99.90;;;;;;5091899;28;20643;-68
2023/06/28 04:22:37;;;;;;;1999.90;999.90;;;17.40;99.90;;;;;;5091595;28;20190;-69
2023/06/28 04:25:03;;;;;;;1999.90;999.90;;;17.40;99.90;;;;;;5091898;28;20476;-69
2023/06/28 04:27:28;;;;;;;1999.90;999.90;;;17.40;99.90;;;;;;5091941;28;20659;-69
2023/06/28 04:29:54;;;;;;;1999.90;999.90;;;17.50;99.90;;;;;;5091763;28;20457;-69
2023/06/28 04:32:24;;;;;;;1999.90;999.90;;;17.50;99.90;;;;;;5091580;28;20704;-69
2023/06/28 04:34:53;;;;;;;1999.90;999.90;;;17.50;99.90;;;;;;5091863;28;20193;-69
2023/06/28 04:37:22;;;;;;;1999.90;999.90;;;17.50;99.90;;;;;;5091648;28;20411;-68
2023/06/28 04:39:48;;;;;;;1999.90;999.90;;;17.50;99.90;;;;;;5091848;28;20499;-69
2023/06/28 04:42:14;;;;;;;1999.90;999.90;;;17.60;99.90;;;;;;5091483;28;20811;-69
2023/06/28 04:44:43;;;;;;;1999.90;999.90;;;17.70;99.90;;;;;;5091624;28;20402;-69
2023/06/28 04:47:09;;;;;;;1999.90;999.90;;;17.70;99.90;;;;;;5091528;28;20410;-69
2023/06/28 04:49:35;;;;;;;1999.90;999.90;;;17.70;99.90;;;;;;5091539;28;20407;-68
2023/06/28 04:52:01;;;;;;;1999.90;999.90;;;17.70;99.90;;;;;;5091291;28;20415;-69
2023/06/28 04:54:26;;;;;;;1999.90;999.90;;;17.70;99.90;;;;;;5091812;28;20173;-69
2023/06/28 04:56:52;;;;;;;1999.90;999.90;;;17.70;99.90;;;;;;5091515;28;20272;-70
2023/06/28 04:59:17;;;;;;;1999.90;999.90;;;17.70;99.90;;;;;;5091605;28;20198;-68
2023/06/28 05:01:43;;;;;;;1999.90;999.90;;;17.70;99.90;;;;;;5091184;28;20178;-69
2023/06/28 05:04:09;;;;;;;1999.90;999.90;;;17.60;99.90;;;;;;5091481;28;20176;-69
2023/06/28 05:06:37;;;;;;;1999.90;999.90;;;17.60;99.90;;;;;;5092123;28;20197;-69
2023/06/28 05:09:02;;;;;;;1999.90;999.90;;;17.60;99.90;;;;;;5095090;28;20171;-69
2023/06/28 05:11:28;;;;;;;1999.90;999.90;;;17.70;99.90;;;;;;5094746;28;20457;-70
2023/06/28 05:13:53;;;;;;;1999.90;999.90;;;17.70;99.90;;;;;;5095005;28;20216;-69
2023/06/28 05:16:19;;;;;;;1999.90;999.90;;;17.80;99.90;;;;;;5094836;28;20192;-69
2023/06/28 05:18:46;;;;;;;1999.90;999.90;;;17.90;99.90;;;;;;5094939;28;20528;-69
2023/06/28 05:21:11;;;;;;;1999.90;999.90;;;17.90;99.90;;;;;;5094708;28;20176;-69
2023/06/28 05:23:37;;;;;;;1999.90;999.90;;;18.00;99.90;;;;;;5094643;28;20799;-69
2023/06/28 05:26:03;;;;;;;1999.90;999.90;;;18.00;99.90;;;;;;5094658;28;20185;-69
2023/06/28 05:28:28;;;;;;;1999.90;999.90;;;18.00;99.90;;;;;;5094773;28;20179;-70
2023/06/28 05:30:54;;;;;;;1999.90;999.90;;;18.00;99.90;;;;;;5094331;28;20450;-70
2023/06/28 05:33:19;;;;;;;1999.90;999.90;;;18.10;99.90;;;;;;5094729;28;20713;-70
2023/06/28 05:35:45;;;;;;;1999.90;999.90;;;18.10;99.90;;;;;;5094637;28;20559;-70
2023/06/28 05:38:11;;;;;;;1999.90;999.90;;;18.20;99.90;;;;;;5094441;28;20158;-70
2023/06/28 05:40:36;;;;;;;1999.90;999.90;;;18.30;99.90;;;;;;5094561;28;20176;-70
2023/06/28 05:43:02;;;;;;;1999.90;999.90;;;18.30;99.90;;;;;;5094257;28;20174;-70
2023/06/28 05:45:29;;;;;;;1999.90;999.90;;;18.40;99.90;;;;;;5094227;28;20567;-70
2023/06/28 05:47:55;;;;;;;1999.90;999.90;;;18.40;99.90;;;;;;5094447;28;20411;-71
2023/06/28 05:50:21;;;;;;;1999.90;999.90;;;18.50;99.90;;;;;;5094339;28;20452;-70
2023/06/28 05:52:48;;;;;;;1999.90;999.90;;;18.50;99.90;;;;;;5094218;28;20944;-69
2023/06/28 05:55:14;;;;;;;1999.90;999.90;;;18.60;99.90;;;;;;5094169;28;20478;-70
2023/06/28 05:57:41;;;;;;;1999.90;999.90;;;18.50;99.90;;;;;;5094171;28;20918;-69
2023/06/28 06:00:08;;;;;;;1999.90;999.90;;;18.30;99.90;;;;;;5094046;28;20403;-70
2023/06/28 06:02:35;;;;;;;1999.90;999.90;;;18.30;99.90;;;;;;5093934;28;20781;-70
2023/06/28 06:05:02;;;;;;;1999.90;999.90;;;18.30;99.90;;;;;;5094238;28;20485;-70
2023/06/28 06:07:28;;;;;;;1999.90;999.90;;;18.20;99.90;;;;;;5093945;28;20407;-70
2023/06/28 06:09:54;;;;;;;1999.90;999.90;;;18.20;99.90;;;;;;5093712;28;20459;-68
2023/06/28 06:12:20;;;;;;;1999.90;999.90;;;18.20;99.90;;;;;;5093572;28;20401;-69
2023/06/28 06:14:46;;;;;;;1999.90;999.90;;;18.10;99.90;;;;;;5093631;28;20524;-69
2023/06/28 06:17:12;;;;;;;1999.90;999.90;;;18.20;99.90;;;;;;5093765;28;20769;-69
2023/06/28 06:19:37;;;;;;;1999.90;999.90;;;18.30;99.90;;;;;;5093161;28;20400;-69
2023/06/28 06:22:03;;;;;;;1999.90;999.90;;;18.30;99.90;;;;;;5093224;28;20185;-68
2023/06/28 06:24:29;;;;;;;1999.90;999.90;;;18.40;99.90;;;;;;5093687;28;20166;-69
2023/06/28 06:26:54;;;;;;;1999.90;999.90;;;18.40;99.90;;;;;;5093400;28;20186;-69
2023/06/28 06:29:20;;;;;;;1999.90;999.90;;;18.40;99.90;;;;;;5093859;28;20224;-68
2023/06/28 06:31:46;;;;;;;1999.90;999.90;;;18.40;99.90;;;;;;5093363;28;20198;-68
2023/06/28 06:34:11;;;;;;;1999.90;999.90;;;18.30;99.90;;;;;;5093455;28;20447;-69
2023/06/28 06:36:38;;;;;;;1999.90;999.90;;;18.40;99.90;;;;;;5093333;28;20228;-69
2023/06/28 06:39:04;;;;;;;1999.90;999.90;;;18.40;99.90;;;;;;5093413;28;20957;-69
2023/06/28 06:41:29;;;;;;;1999.90;999.90;;;18.40;99.90;;;;;;5093281;28;20280;-68
2023/06/28 06:43:56;;;;;;;1999.90;999.90;;;18.50;99.90;;;;;;5093302;28;20616;-69
2023/06/28 06:46:21;;;;;;;1999.90;999.90;;;18.60;99.90;;;;;;5093046;28;20290;-69
2023/06/28 06:48:47;;;;;;;1999.90;999.90;;;18.60;99.90;;;;;;5093141;28;20491;-70
2023/06/28 06:51:13;;;;;;;1999.90;999.90;;;18.70;99.90;;;;;;5092876;28;20201;-69
2023/06/28 06:53:38;;;;;;;1999.90;999.90;;;18.80;99.90;;;;;;5093045;28;20941;-71
2023/06/28 06:56:04;;;;;;;1999.90;999.90;;;18.90;99.90;;;;;;5092914;28;20537;-70
2023/06/28 06:58:30;;;;;;;1999.90;999.90;;;19.00;99.90;;;;;;5093229;28;20609;-70
2023/06/28 07:00:56;;;;;;;1999.90;999.90;;;19.00;99.90;;;;;;5092640;28;20411;-69
2023/06/28 07:03:21;;;;;;;1999.90;999.90;;;19.10;99.90;;;;;;5092806;28;20453;-70
2023/06/28 07:05:47;;;;;;;1999.90;999.90;;;19.20;99.90;;;;;;5092827;28;20285;-69
2023/06/28 07:08:13;;;;;;;1999.90;999.90;;;19.20;99.90;;;;;;5092695;28;20656;-70
2023/06/28 07:10:38;;;;;;;1999.90;999.90;;;19.30;99.90;;;;;;5092552;28;20213;-70
2023/06/28 07:13:04;;;;;;;1999.90;999.90;;;19.30;99.90;;;;;;5092416;28;20222;-70
2023/06/28 07:15:30;;;;;;;1999.90;999.90;;;19.10;99.90;;;;;;5092570;28;20193;-70
2023/06/28 07:17:55;;;;;;;1999.90;999.90;;;19.20;99.90;;;;;;5092819;28;20173;-70
2023/06/28 07:20:21;;;;;;;1999.90;999.90;;;19.20;99.90;;;;;;5092561;28;20256;-70
2023/06/28 07:22:47;;;;;;;1999.90;999.90;;;19.20;99.90;;;;;;5092172;28;20574;-70
2023/06/28 07:25:13;;;;;;;1999.90;999.90;;;19.20;99.90;;;;;;5092423;28;20434;-70
2023/06/28 07:27:39;;;;;;;1999.90;999.90;;;19.20;99.90;;;;;;5092475;28;20419;-70
2023/06/28 07:30:07;;;;;;;1999.90;999.90;;;19.20;99.90;;;;;;5091489;28;20470;-68
2023/06/28 07:32:33;;;;;;;1999.90;999.90;;;19.20;99.90;;;;;;5092217;28;20506;-69
2023/06/28 07:34:59;;;;;;;1999.90;999.90;;;19.20;99.90;;;;;;5092284;28;20510;-68
2023/06/28 07:37:24;;;;;;;1999.90;999.90;;;19.20;99.90;;;;;;5092438;28;20174;-69
2023/06/28 07:39:51;;;;;;;1999.90;999.90;;;19.30;99.90;;;;;;5092416;28;20538;-70
2023/06/28 07:42:17;;;;;;;1999.90;999.90;;;19.30;99.90;;;;;;5091909;28;20176;-69
2023/06/28 07:44:43;;;;;;;1999.90;999.90;;;19.30;99.90;;;;;;5092182;28;20440;-69
2023/06/28 07:47:09;;;;;;;1999.90;999.90;;;19.40;99.90;;;;;;5092220;28;20181;-70
2023/06/28 07:49:34;;;;;;;1999.90;999.90;;;19.40;99.90;;;;;;5092119;28;20401;-69
2023/06/28 07:52:00;;;;;;;1999.90;999.90;;;19.50;99.90;;;;;;5091797;28;20202;-68
2023/06/28 07:54:26;;;;;;;1999.90;999.90;;;19.50;99.90;;;;;;5092171;28;20253;-69
2023/06/28 07:56:51;;;;;;;1999.90;999.90;;;19.50;99.90;;;;;;5092007;28;20191;-69
2023/06/28 07:59:20;;;;;;;1999.90;999.90;;;19.50;99.90;;;;;;5092040;28;20181;-69
2023/06/28 08:01:46;;;;;;;1999.90;999.90;;;19.60;99.90;;;;;;5091770;28;20549;-68
2023/06/28 08:04:11;;;;;;;1999.90;999.90;;;19.70;99.90;;;;;;5091931;28;20405;-68
2023/06/28 08:06:37;;;;;;;1999.90;999.90;;;19.80;99.90;;;;;;5077964;28;20476;-69
2023/06/28 08:09:03;;;;;;;1999.90;999.90;;;19.80;99.90;;;;;;5066236;28;20530;-70
2023/06/28 08:11:28;;;;;;;1999.90;999.90;;;19.80;99.90;;;;;;5067143;28;20264;-70
2023/06/28 08:13:54;;;;;;;1999.90;999.90;;;19.90;99.90;;;;;;5066679;28;20609;-70
2023/06/28 08:16:20;;;;;;;1999.90;999.90;;;19.90;99.90;;;;;;5067047;28;20285;-72
2023/06/28 08:18:45;;;;;;;1999.90;999.90;;;19.90;99.90;;;;;;5067608;28;20214;-71
2023/06/28 08:21:11;;;;;;;1999.90;999.90;;;19.90;99.90;;;;;;5066342;28;20168;-70
2023/06/28 08:23:36;;;;;;;1999.90;999.90;;;19.80;99.90;;;;;;5067644;28;20225;-71
2023/06/28 08:26:08;;;;;;;1999.90;999.90;;;19.90;99.90;;;;;;5066594;28;20199;-72
2023/06/28 08:28:34;;;;;;;1999.90;999.90;;;19.80;99.90;;;;;;5064895;28;20588;-71
2023/06/28 08:31:00;;;;;;;1999.90;999.90;;;19.70;99.90;;;;;;5066791;28;20455;-74
2023/06/28 08:33:26;;;;;;;1999.90;999.90;;;19.70;99.90;;;;;;5067594;28;20201;-73
2023/06/28 08:35:51;;;;;;;1999.90;999.90;;;19.80;99.90;;;;;;5066514;28;20248;-72
2023/06/28 08:38:17;;;;;;;1999.90;999.90;;;19.70;99.90;;;;;;5067633;28;20183;-69
2023/06/28 08:40:43;;;;;;;1999.90;999.90;;;19.80;99.90;;;;;;5067155;28;20175;-72
2023/06/28 08:43:12;;;;;;;1999.90;999.90;;;19.90;99.90;;;;;;5068783;28;20182;-73
2023/06/28 08:45:39;;;;;;;1999.90;999.90;;;20.00;99.90;;;;;;5071277;28;20197;-73
2023/06/28 08:48:05;;;;;;;1999.90;999.90;;;19.90;99.90;;;;;;5070825;28;20437;-77
2023/06/28 08:50:31;;;;;;;1999.90;999.90;;;20.00;99.90;;;;;;5069789;28;20497;-70
2023/06/28 08:52:58;;;;;;;1999.90;999.90;;;19.80;99.90;;;;;;5070708;28;20422;-72
2023/06/28 08:55:24;;;;;;;1999.90;999.90;;;19.80;99.90;;;;;;5070461;28;20429;-71
2023/06/28 08:57:50;;;;;;;1999.90;999.90;;;19.80;99.90;;;;;;5069833;28;20408;-71
2023/06/28 09:00:16;;;;;;;1999.90;999.90;;;19.80;99.90;;;;;;5071409;28;20218;-73
2023/06/28 09:02:43;;;;;;;1999.90;999.90;;;19.80;99.90;;;;;;5070112;28;20427;-71
2023/06/28 09:05:10;;;;;;;1999.90;999.90;;;19.80;99.90;;;;;;5070260;28;20210;-72
2023/06/28 09:07:39;;;;;;;1999.90;999.90;;;19.70;99.90;;;;;;5071004;28;20900;-70
2023/06/28 09:10:07;;;;;;;1999.90;999.90;;;19.80;99.90;;;;;;5070458;28;20506;-70
2023/06/28 09:12:33;;;;;;;1999.90;999.90;;;19.80;99.90;;;;;;5069177;28;21314;-69
2023/06/28 09:14:59;;;;;;;1999.90;999.90;;;19.90;99.90;;;;;;5069857;28;20442;-70
2023/06/28 09:17:25;;;;;;;1999.90;999.90;;;19.90;99.90;;;;;;5069295;28;20464;-70
2023/06/28 09:19:51;;;;;;;1999.90;999.90;;;20.00;99.90;;;;;;5069240;28;20259;-70
2023/06/28 09:22:17;;;;;;;1999.90;999.90;;;20.20;99.90;;;;;;5069950;28;20189;-70
2023/06/28 09:24:48;;;;;;;1999.90;999.90;;;20.40;99.90;;;;;;5069429;28;20528;-69
2023/06/28 09:27:15;;;;;;;1999.90;999.90;;;20.50;99.90;;;;;;5069264;28;20200;-70
2023/06/28 09:29:40;;;;;;;1999.90;999.90;;;20.60;99.90;;;;;;5070249;28;20427;-70
2023/06/28 09:32:06;;;;;;;1999.90;999.90;;;20.70;99.90;;;;;;5069569;28;20455;-71
2023/06/28 09:34:32;;;;;;;1999.90;999.90;;;20.80;99.90;;;;;;5068968;28;20181;-70
2023/06/28 09:36:59;;;;;;;1999.90;999.90;;;21.00;99.90;;;;;;5070172;28;20440;-70
2023/06/28 09:39:25;;;;;;;1999.90;999.90;;;21.00;99.90;;;;;;5069121;28;20178;-71
2023/06/28 09:41:51;;;;;;;1999.90;999.90;;;21.10;99.90;;;;;;5068696;28;20395;-69
2023/06/28 09:44:28;;;;;;;1999.90;999.90;;;21.20;99.90;;;;;;5070122;28;20431;-70
2023/06/28 09:47:00;;;;;;;1999.90;999.90;;;21.20;99.90;;;;;;5069646;28;20760;-70
2023/06/28 09:49:26;;;;;;;1999.90;999.90;;;21.30;99.90;;;;;;5068742;28;20391;-70
2023/06/28 09:51:59;;;;;;;1999.90;999.90;;;21.40;99.90;;;;;;5068881;28;20457;-71
2023/06/28 09:54:32;;;;;;;1999.90;999.90;;;21.60;99.90;;;;;;5068143;28;20255;-70
2023/06/28 09:56:59;;;;;;;1999.90;999.90;;;21.70;99.90;;;;;;5069347;28;20463;-70
2023/06/28 09:59:28;;;;;;;1999.90;999.90;;;21.70;99.90;;;;;;5069500;28;20405;-69
2023/06/28 10:01:57;;;;;;;1999.90;999.90;;;21.80;99.90;;;;;;5068416;28;20431;-70
2023/06/28 10:04:25;;;;;;;1999.90;999.90;;;21.90;99.90;;;;;;5068359;28;20957;-71
2023/06/28 10:06:52;;;;;;;1999.90;999.90;;;21.80;99.90;;;;;;5069805;28;20427;-70
2023/06/28 10:09:21;;;;;;;1999.90;999.90;;;21.90;99.90;;;;;;5069240;28;20540;-69
2023/06/28 10:11:48;;;;;;;1999.90;999.90;;;22.10;99.90;;;;;;5068383;28;20419;-69
2023/06/28 10:14:16;;;;;;;1999.90;999.90;;;22.30;99.90;;;;;;5069352;28;20387;-69
2023/06/28 10:16:43;;;;;;;1999.90;999.90;;;22.40;99.90;;;;;;5069145;28;20425;-69
2023/06/28 10:19:10;;;;;;;1999.90;999.90;;;22.60;99.90;;;;;;5068493;28;20474;-69
2023/06/28 10:21:37;;;;;;;1999.90;999.90;;;22.80;99.90;;;;;;5069091;28;20404;-70
2023/06/28 10:24:05;;;;;;;1999.90;999.90;;;23.00;99.90;;;;;;5069253;28;20395;-70
2023/06/28 10:26:31;;;;;;;1999.90;999.90;;;23.30;99.90;;;;;;5068297;28;20438;-70
2023/06/28 10:28:58;;;;;;;1999.90;999.90;;;23.40;99.90;;;;;;5069231;28;20892;-71
2023/06/28 10:31:24;;;;;;;1999.90;999.90;;;23.60;99.90;;;;;;5068727;28;20738;-70
2023/06/28 10:33:50;;;;;;;1999.90;999.90;;;23.50;99.90;;;;;;5068254;28;20405;-69
2023/06/28 10:36:16;;;;;;;1999.90;999.90;;;23.50;99.90;;;;;;5069081;28;20422;-69
2023/06/28 10:38:45;;;;;;;1999.90;999.90;;;23.40;99.90;;;;;;5068716;28;20907;-70
2023/06/28 10:41:19;;;;;;;1999.90;999.90;;;23.40;99.90;;;;;;5067761;28;21040;-69
2023/06/28 10:43:45;;;;;;;1999.90;999.90;;;23.60;99.90;;;;;;5068209;28;20412;-71
2023/06/28 10:46:26;;;;;;;1999.90;999.90;;;23.90;99.90;;;;;;5069191;28;20406;-70
2023/06/28 10:48:56;;;;;;;1999.90;999.90;;;24.10;99.90;;;;;;5068806;28;20387;-70
2023/06/28 10:51:25;;;;;;;1999.90;999.90;;;24.30;99.90;;;;;;5068089;28;20449;-69
2023/06/28 10:54:01;;;;;;;1999.90;999.90;;;24.40;99.90;;;;;;5068337;28;20527;-70
2023/06/28 10:56:42;;;;;;;1999.90;999.90;;;24.60;99.90;;;;;;5067523;28;20395;-70
2023/06/28 10:59:07;;;;;;;1999.90;999.90;;;24.80;99.90;;;;;;5068283;28;20802;-70
2023/06/28 11:01:36;;;;;;;1999.90;999.90;;;24.80;99.90;;;;;;5068502;28;20486;-71
2023/06/28 11:04:12;;;;;;;1999.90;999.90;;;24.90;99.90;;;;;;5067833;28;20175;-70
2023/06/28 11:06:39;;;;;;;1999.90;999.90;;;24.80;99.90;;;;;;5068667;28;20615;-70
2023/06/28 11:09:16;;;;;;;1999.90;999.90;;;24.80;99.90;;;;;;5068072;28;20784;-70
2023/06/28 11:12:03;;;;;;;1999.90;999.90;;;24.80;99.90;;;;;;5067082;28;20820;-70
2023/06/28 11:14:33;;;;;;;1999.90;999.90;;;24.90;99.90;;;;;;5068206;28;20394;-70
2023/06/28 11:17:03;;;;;;;1999.90;999.90;;;25.00;99.90;;;;;;5067811;28;20958;-70
2023/06/28 11:19:29;;;;;;;1999.90;999.90;;;25.20;99.90;;;;;;5067169;28;20744;-70
2023/06/28 11:21:57;;;;;;;1999.90;999.90;;;25.40;99.90;;;;;;5068293;28;20472;-70
2023/06/28 11:24:42;;;;;;;1999.90;999.90;;;25.40;99.90;;;;;;5067929;28;20205;-71
2023/06/28 11:27:19;;;;;;;1999.90;999.90;;;25.50;99.90;;;;;;5067946;28;20687;-70
2023/06/28 11:30:00;;;;;;;1999.90;999.90;;;25.60;99.90;;;;;;5068508;28;20427;-71
2023/06/28 11:32:32;;;;;;;1999.90;999.90;;;25.90;99.90;;;;;;5068265;28;20421;-70
2023/06/28 11:34:59;;;;;;;1999.90;999.90;;;26.00;99.90;;;;;;5067580;28;20976;-70
2023/06/28 11:37:25;;;;;;;1999.90;999.90;;;26.00;97.60;;;;;;5067876;28;20437;-71
2023/06/28 11:39:51;;;;;;;1999.90;999.90;;;25.70;96.70;;;;;;5067832;28;20489;-70
2023/06/28 11:42:18;;;;;;;1999.90;999.90;;;25.50;97.20;;;;;;5066905;28;20428;-70
2023/06/28 11:44:49;;;;;;;1999.90;999.90;;;25.50;94.90;;;;;;5066882;28;20405;-70
2023/06/28 11:47:20;;;;;;;1999.90;999.90;;;25.60;96.40;;;;;;5067449;28;20467;-71
2023/06/28 11:49:46;;;;;;;1999.90;999.90;;;25.70;95.50;;;;;;5067958;28;20420;-71
2023/06/28 11:52:16;;;;;;;1999.90;999.90;;;25.70;92.90;;;;;;5067254;28;21244;-70
2023/06/28 11:54:42;;;;;;;1999.90;999.90;;;25.70;93.10;;;;;;5067085;28;20436;-71
2023/06/28 11:57:08;;;;;;;1999.90;999.90;;;25.70;91.60;;;;;;5067881;28;20862;-71